createdAt,value
2023-03-23T15:59:23.205Z,13.61
2023-03-23T16:04:29.602Z,13.77
2023-03-23T16:09:33.040Z,13.65
2023-03-23T16:14:37.743Z,13.74
2023-03-23T16:19:41.274Z,13.44
2023-03-23T16:24:44.435Z,13.44
2023-03-23T16:30:03.144Z,13.52
2023-03-23T16:35:08.437Z,13.51
2023-03-23T16:40:14.435Z,13.27
2023-03-23T16:45:19.478Z,13.06
2023-03-23T16:50:23.411Z,13.09
2023-03-23T16:55:27.408Z,12.90
2023-03-23T17:00:32.688Z,12.99
2023-03-23T17:05:38.385Z,13.00
2023-03-23T17:10:43.802Z,12.90
2023-03-23T17:15:48.648Z,12.94
2023-03-23T17:20:54.309Z,12.76
2023-03-23T17:25:57.865Z,12.55
2023-03-23T17:31:03.084Z,12.58
2023-03-23T17:36:06.806Z,12.48
2023-03-23T17:41:11.590Z,12.55
2023-03-23T17:46:17.050Z,12.57
2023-03-23T17:51:20.667Z,12.53
2023-03-23T17:56:24.230Z,12.38
2023-03-23T18:01:29.001Z,12.49
2023-03-23T18:06:33.229Z,12.47
2023-03-23T18:11:36.382Z,12.44
2023-03-23T18:16:41.313Z,12.36
2023-03-23T18:21:45.951Z,12.47
2023-03-23T18:26:52.087Z,12.49
2023-03-23T18:31:56.919Z,12.31
2023-03-23T18:37:00.693Z,12.43
2023-03-23T18:42:03.915Z,12.43
2023-03-23T18:47:09.538Z,12.41
2023-03-23T18:52:12.965Z,12.44
2023-03-23T18:57:18.195Z,12.44
2023-03-23T19:02:23.902Z,12.28
2023-03-23T19:07:29.742Z,12.28
2023-03-23T19:12:34.147Z,12.26
2023-03-23T19:17:40.126Z,12.18
2023-03-23T19:22:43.486Z,12.07
2023-03-23T19:28:23.188Z,12.02
2023-03-23T19:33:13.254Z,11.89
2023-03-23T19:38:16.636Z,11.81
2023-03-23T19:43:21.355Z,11.87
2023-03-23T19:48:28.801Z,11.86
2023-03-23T19:53:32.174Z,11.79
2023-03-23T19:58:35.522Z,11.81
2023-03-23T20:03:41.495Z,11.80
2023-03-23T20:08:47.701Z,11.77
2023-03-23T20:13:51.764Z,11.83
2023-03-23T20:19:00.093Z,11.70
2023-03-23T20:24:04.104Z,11.77
2023-03-23T20:29:08.424Z,11.79
2023-03-23T20:34:17.145Z,11.60
2023-03-23T20:39:23.255Z,11.62
2023-03-23T20:44:31.267Z,11.50
2023-03-23T20:49:39.309Z,11.57
2023-03-23T20:54:45.009Z,11.56
2023-03-23T20:59:49.014Z,11.56
2023-03-23T21:04:54.475Z,11.52
2023-03-23T21:09:58.492Z,11.52
2023-03-23T21:15:02.619Z,11.57
2023-03-23T21:20:11.210Z,11.56
2023-03-23T21:25:16.410Z,11.62
2023-03-23T21:30:21.627Z,11.67
2023-03-23T21:35:26.872Z,11.65
2023-03-23T21:40:31.450Z,11.74
2023-03-23T21:45:35.511Z,11.71
2023-03-23T21:50:43.125Z,11.78
2023-03-23T21:55:51.239Z,11.82
2023-03-23T22:00:56.062Z,11.83
2023-03-23T22:06:10.572Z,11.96
2023-03-23T22:11:17.191Z,11.98
2023-03-23T22:16:22.649Z,12.04
2023-03-23T22:21:29.249Z,12.09
2023-03-23T22:26:32.536Z,11.94
2023-03-23T22:31:37.106Z,11.94
2023-03-23T22:36:42.438Z,12.15
2023-03-23T22:41:46.359Z,12.07
2023-03-23T22:46:50.623Z,12.11
2023-03-23T22:51:56.349Z,12.24
2023-03-23T22:56:59.956Z,12.36
2023-03-23T23:02:03.299Z,12.41
2023-03-23T23:07:12.882Z,12.36
2023-03-23T23:12:17.124Z,12.26
2023-03-23T23:17:20.422Z,12.13
2023-03-23T23:22:25.109Z,12.27
2023-03-23T23:27:28.421Z,12.16
2023-03-23T23:32:33.802Z,12.22
2023-03-23T23:37:39.207Z,12.07
2023-03-23T23:42:43.128Z,12.22
2023-03-23T23:47:47.284Z,12.19
2023-03-23T23:52:52.402Z,12.14
2023-03-23T23:57:56.204Z,12.24
